createdAt,value
2019-03-21T00:02:17.377Z,34.18
2019-03-21T00:04:48.294Z,29.72
2019-03-21T00:07:17.798Z,30.40
2019-03-21T00:10:06.930Z,32.88
2019-03-21T00:12:36.327Z,29.37
2019-03-21T00:15:15.192Z,33.63
2019-03-21T00:17:46.915Z,31.27
2019-03-21T00:20:17.640Z,31.00
2019-03-21T00:22:47.032Z,33.25
2019-03-21T00:25:19.753Z,30.27
2019-03-21T00:27:48.927Z,31.33
2019-03-21T00:30:20.670Z,30.57
2019-03-21T00:32:50.042Z,30.43
2019-03-21T00:35:19.350Z,27.93
2019-03-21T00:37:49.089Z,28.15
2019-03-21T00:40:27.049Z,30.40
2019-03-21T00:42:56.907Z,28.17
2019-03-21T00:45:26.148Z,35.43
2019-03-21T00:47:55.337Z,30.70
2019-03-21T00:50:27.049Z,31.62
2019-03-21T00:52:56.699Z,29.12
2019-03-21T00:55:32.244Z,30.75
2019-03-21T00:58:01.506Z,28.62
2019-03-21T01:00:34.301Z,29.02
2019-03-21T01:03:03.937Z,29.82
2019-03-21T01:05:33.262Z,33.10
2019-03-21T01:08:02.499Z,31.90
2019-03-21T01:10:32.627Z,28.12
2019-03-21T01:13:01.893Z,32.28
2019-03-21T01:15:31.142Z,32.53
2019-03-21T01:18:00.333Z,29.32
2019-03-21T01:20:29.505Z,27.55
2019-03-21T01:22:58.796Z,32.48
2019-03-21T01:25:34.340Z,30.52
2019-03-21T01:28:03.614Z,32.75
2019-03-21T01:30:32.759Z,30.02
2019-03-21T01:33:02.078Z,27.42
2019-03-21T01:35:31.327Z,35.50
2019-03-21T01:38:00.502Z,33.58
2019-03-21T01:40:36.117Z,27.80
2019-03-21T01:43:05.397Z,30.25
2019-03-21T01:45:34.655Z,30.88
2019-03-21T01:48:03.884Z,28.38
2019-03-21T01:50:38.417Z,30.52
2019-03-21T01:53:07.611Z,31.33
2019-03-21T01:55:37.003Z,28.85
2019-03-21T01:58:06.382Z,30.00
2019-03-21T02:00:47.804Z,30.25
2019-03-21T02:03:17.082Z,30.75
2019-03-21T02:05:46.348Z,30.80
2019-03-21T02:08:15.622Z,30.08
2019-03-21T02:10:44.882Z,25.95
2019-03-21T02:13:14.073Z,31.05
2019-03-21T02:15:43.336Z,28.77
2019-03-21T02:18:12.617Z,29.37
2019-03-21T02:20:41.829Z,29.90
2019-03-21T02:23:11.111Z,30.52
2019-03-21T02:25:41.970Z,32.05
2019-03-21T02:28:11.271Z,29.55
2019-03-21T02:30:48.929Z,28.17
2019-03-21T02:33:32.648Z,30.75
2019-03-21T02:36:05.050Z,27.30
2019-03-21T02:41:11.934Z,28.40
2019-03-21T02:43:41.378Z,27.13
2019-03-21T02:46:10.657Z,27.35
2019-03-21T02:48:39.926Z,29.87
2019-03-21T02:51:09.169Z,31.23
2019-03-21T02:53:38.351Z,32.73
2019-03-21T02:56:10.946Z,46.13
2019-03-21T02:58:40.181Z,36.23
2019-03-21T03:01:09.441Z,32.03
2019-03-21T03:03:38.638Z,31.82
2019-03-21T03:06:07.948Z,31.73
2019-03-21T03:08:37.117Z,30.30
2019-03-21T03:11:15.628Z,29.35
2019-03-21T03:13:47.847Z,28.83
2019-03-21T03:16:17.260Z,32.45
2019-03-21T03:18:46.434Z,30.77
2019-03-21T03:21:15.670Z,32.35
2019-03-21T03:23:45.004Z,32.55
2019-03-21T03:26:14.192Z,30.15
2019-03-21T03:28:45.408Z,30.43
2019-03-21T03:31:15.069Z,30.75
2019-03-21T03:33:44.594Z,29.23
2019-03-21T03:36:15.753Z,26.15
2019-03-21T03:38:45.094Z,32.63
2019-03-21T03:41:17.785Z,32.40
2019-03-21T03:43:47.155Z,33.15
2019-03-21T03:46:16.708Z,30.82
2019-03-21T03:48:46.231Z,39.30
2019-03-21T03:51:15.580Z,46.92
2019-03-21T03:53:44.799Z,43.10
2019-03-21T03:56:14.067Z,39.73
2019-03-21T03:58:46.515Z,41.45
2019-03-21T04:03:44.511Z,37.85
2019-03-21T04:06:13.771Z,31.23
2019-03-21T04:08:43.026Z,34.53
2019-03-21T04:11:12.211Z,29.72
2019-03-21T04:13:41.459Z,24.72
2019-03-21T04:16:10.684Z,27.27
2019-03-21T04:18:39.937Z,26.77
2019-03-21T04:21:12.706Z,25.37
2019-03-21T04:23:42.041Z,30.82
2019-03-21T04:26:29.307Z,26.12
2019-03-21T04:28:58.606Z,26.27
2019-03-21T04:31:27.801Z,24.52
2019-03-21T04:34:00.415Z,27.42
2019-03-21T04:36:29.670Z,26.02
2019-03-21T04:38:58.883Z,28.17
2019-03-21T04:41:28.130Z,29.82
2019-03-21T04:43:57.371Z,28.23
2019-03-21T04:46:26.684Z,26.82
2019-03-21T04:48:56.014Z,27.87
2019-03-21T04:51:25.332Z,34.90
2019-03-21T04:53:54.650Z,26.05
2019-03-21T04:56:24.251Z,40.55
2019-03-21T04:58:53.496Z,33.95
2019-03-21T05:01:22.897Z,24.50
2019-03-21T05:03:52.272Z,29.02
2019-03-21T05:06:21.726Z,31.73
2019-03-21T05:09:11.660Z,35.60
2019-03-21T05:11:41.151Z,38.33
2019-03-21T05:14:10.418Z,31.35
2019-03-21T05:16:39.721Z,29.02
2019-03-21T05:19:09.179Z,27.35
2019-03-21T05:21:39.443Z,27.30
2019-03-21T05:24:08.752Z,26.77
2019-03-21T05:26:38.095Z,22.35
2019-03-21T05:29:07.979Z,30.88
2019-03-21T05:31:37.630Z,25.92
2019-03-21T05:34:06.928Z,25.48
2019-03-21T05:36:36.355Z,25.95
2019-03-21T05:39:08.657Z,32.45
2019-03-21T05:41:37.851Z,28.23
2019-03-21T05:44:26.078Z,29.40
2019-03-21T05:46:55.410Z,27.50
2019-03-21T05:49:24.597Z,27.37
2019-03-21T05:51:53.998Z,32.33
2019-03-21T05:54:23.260Z,33.10
2019-03-21T05:56:52.533Z,33.75
2019-03-21T05:59:22.082Z,28.83
2019-03-21T06:01:51.425Z,32.28
2019-03-21T06:04:20.615Z,35.70
2019-03-21T06:07:08.179Z,34.95
2019-03-21T06:09:37.705Z,39.95
2019-03-21T06:12:07.929Z,31.45
2019-03-21T06:14:49.190Z,27.58
2019-03-21T06:17:19.081Z,30.05
2019-03-21T06:19:51.630Z,35.95
2019-03-21T06:22:33.261Z,35.03
2019-03-21T06:25:31.479Z,39.48
2019-03-21T06:28:00.799Z,30.27
2019-03-21T06:30:30.218Z,34.48
2019-03-21T06:32:59.462Z,34.98
2019-03-21T06:35:28.823Z,29.15
2019-03-21T06:37:58.137Z,32.48
2019-03-21T06:40:27.543Z,33.05
2019-03-21T06:42:56.867Z,29.05
2019-03-21T06:45:26.299Z,35.33
2019-03-21T06:47:55.716Z,39.60
2019-03-21T06:50:25.066Z,44.98
2019-03-21T06:52:54.639Z,34.38
2019-03-21T06:55:24.011Z,39.05
2019-03-21T06:57:53.373Z,36.30
2019-03-21T07:00:24.928Z,34.53
2019-03-21T07:02:53.765Z,32.73
2019-03-21T07:05:23.109Z,32.65
2019-03-21T07:07:52.503Z,33.35
2019-03-21T07:10:22.785Z,33.25
2019-03-21T07:12:52.221Z,39.10
2019-03-21T07:15:21.697Z,35.68
2019-03-21T07:17:51.011Z,39.20
2019-03-21T07:20:20.268Z,38.67
2019-03-21T07:22:49.693Z,38.10
2019-03-21T07:25:19.075Z,34.70
2019-03-21T07:27:48.454Z,30.10
2019-03-21T07:30:17.872Z,35.40
2019-03-21T07:32:47.201Z,29.77
2019-03-21T07:35:16.484Z,31.17
2019-03-21T07:37:45.906Z,35.45
2019-03-21T07:40:15.186Z,29.75
2019-03-21T07:42:44.637Z,36.25
2019-03-21T07:45:14.079Z,31.20
2019-03-21T07:47:43.482Z,38.55
2019-03-21T07:50:14.315Z,37.28
2019-03-21T07:52:43.548Z,34.15
2019-03-21T07:55:12.870Z,31.45
2019-03-21T07:57:42.205Z,31.00
2019-03-21T08:00:19.323Z,36.50
2019-03-21T08:02:48.655Z,38.95
2019-03-21T08:05:18.046Z,31.97
2019-03-21T08:07:47.388Z,32.25
2019-03-21T08:10:16.663Z,36.53
2019-03-21T08:12:45.931Z,38.13
2019-03-21T08:15:16.328Z,32.20
2019-03-21T08:17:45.653Z,36.95
2019-03-21T08:20:15.566Z,33.48
2019-03-21T08:22:44.988Z,32.05
2019-03-21T08:25:14.348Z,33.20
2019-03-21T08:27:43.716Z,29.63
2019-03-21T08:30:16.232Z,29.15
2019-03-21T08:32:45.513Z,33.55
2019-03-21T08:35:14.835Z,31.52
2019-03-21T08:37:44.568Z,29.48
2019-03-21T08:40:13.908Z,24.80
2019-03-21T08:42:43.211Z,27.32
2019-03-21T08:45:12.642Z,27.13
2019-03-21T08:47:42.033Z,24.52
2019-03-21T08:50:11.942Z,27.52
2019-03-21T08:52:41.281Z,26.25
2019-03-21T08:55:10.654Z,24.27
2019-03-21T08:57:39.926Z,22.87
2019-03-21T09:00:14.442Z,23.55
2019-03-21T09:02:43.846Z,25.57
2019-03-21T09:05:13.028Z,23.10
2019-03-21T09:07:42.390Z,23.90
2019-03-21T09:10:12.177Z,23.12
2019-03-21T09:12:42.781Z,22.40
2019-03-21T09:15:12.223Z,21.17
2019-03-21T09:17:41.797Z,27.22
2019-03-21T09:20:10.987Z,22.98
2019-03-21T09:22:40.626Z,19.87
2019-03-21T09:25:09.968Z,18.37
2019-03-21T09:27:39.295Z,20.45
2019-03-21T09:30:13.500Z,18.40
2019-03-21T09:32:42.772Z,17.42
2019-03-21T09:35:12.546Z,18.55
2019-03-21T09:37:42.167Z,17.57
2019-03-21T09:40:12.322Z,16.97
2019-03-21T09:42:41.726Z,18.27
2019-03-21T09:45:11.106Z,17.42
2019-03-21T09:47:40.526Z,13.88
2019-03-21T09:50:09.891Z,16.10
2019-03-21T09:52:39.295Z,18.50
2019-03-21T09:55:08.607Z,16.23
2019-03-21T09:57:37.848Z,17.17
2019-03-21T10:00:09.140Z,16.60
2019-03-21T10:02:38.561Z,16.30
2019-03-21T10:05:07.914Z,18.95
2019-03-21T10:07:37.295Z,18.07
2019-03-21T10:10:06.822Z,18.10
2019-03-21T10:12:36.076Z,14.70
2019-03-21T10:15:06.618Z,23.22
2019-03-21T10:17:35.885Z,19.45
2019-03-21T10:20:07.947Z,18.05
2019-03-21T10:22:37.323Z,22.80
2019-03-21T10:25:07.011Z,21.42
2019-03-21T10:27:36.410Z,18.40
2019-03-21T10:30:07.515Z,21.77
2019-03-21T10:32:36.874Z,15.35
2019-03-21T10:35:06.566Z,15.93
2019-03-21T10:37:35.886Z,15.70
2019-03-21T10:40:05.622Z,15.35
2019-03-21T10:42:34.925Z,11.30
2019-03-21T10:45:06.473Z,16.93
2019-03-21T10:47:35.838Z,15.63
2019-03-21T10:50:06.671Z,16.52
2019-03-21T10:52:36.025Z,15.08
2019-03-21T10:55:06.151Z,14.80
2019-03-21T10:57:35.460Z,17.87
2019-03-21T11:00:09.147Z,17.77
2019-03-21T11:02:38.580Z,13.75
2019-03-21T11:05:08.026Z,18.50
2019-03-21T11:07:37.348Z,14.10
2019-03-21T11:10:07.460Z,14.35
2019-03-21T11:40:32.940Z,13.13
2019-03-21T11:43:03.228Z,13.45
2019-03-21T11:45:32.438Z,14.63
2019-03-21T11:48:01.667Z,13.48
2019-03-21T11:50:30.857Z,14.85
2019-03-21T11:53:00.109Z,13.80
2019-03-21T11:55:29.346Z,12.53
2019-03-21T11:57:58.590Z,10.75
2019-03-21T12:00:27.796Z,12.20
2019-03-21T12:02:57.295Z,12.95
2019-03-21T12:05:26.478Z,12.47
2019-03-21T12:07:55.698Z,19.55
2019-03-21T12:10:24.974Z,10.85
2019-03-21T12:12:54.151Z,11.30
2019-03-21T12:15:23.431Z,8.88
2019-03-21T12:17:52.696Z,10.90
2019-03-21T12:20:32.899Z,9.50
2019-03-21T12:23:02.161Z,15.15
2019-03-21T12:25:31.417Z,9.90
2019-03-21T12:28:01.620Z,7.33
2019-03-21T12:30:37.096Z,10.50
2019-03-21T12:33:06.561Z,9.63
2019-03-21T12:35:35.737Z,10.28
2019-03-21T12:38:05.069Z,7.53
2019-03-21T12:40:34.418Z,10.03
2019-03-21T12:43:03.651Z,9.73
2019-03-21T12:45:32.840Z,10.30
2019-03-21T12:48:02.105Z,8.13
2019-03-21T12:50:31.297Z,8.43
2019-03-21T12:53:00.503Z,8.30
2019-03-21T12:55:29.741Z,8.48
2019-03-21T12:57:58.911Z,12.58
2019-03-21T13:00:35.991Z,9.33
2019-03-21T13:03:05.310Z,11.03
2019-03-21T13:05:34.577Z,9.33
2019-03-21T13:08:03.820Z,9.93
2019-03-21T13:10:33.064Z,10.72
2019-03-21T13:13:02.288Z,11.40
2019-03-21T13:15:31.554Z,11.20
2019-03-21T13:18:00.925Z,9.23
2019-03-21T13:20:30.125Z,12.05
2019-03-21T13:22:59.396Z,9.73
2019-03-21T13:25:28.619Z,11.22
2019-03-21T13:27:57.839Z,12.60
2019-03-21T13:30:27.038Z,10.35
2019-03-21T13:32:56.317Z,11.18
2019-03-21T13:35:32.529Z,10.75
2019-03-21T13:37:56.427Z,10.20
2019-03-21T13:40:25.650Z,11.73
2019-03-21T13:42:54.826Z,9.65
2019-03-21T13:45:24.055Z,9.50
2019-03-21T13:47:53.308Z,10.72
2019-03-21T13:50:22.487Z,13.10
2019-03-21T13:52:51.768Z,15.08
2019-03-21T13:55:21.026Z,9.45
2019-03-21T13:57:50.332Z,15.98
2019-03-21T14:00:21.128Z,13.43
2019-03-21T14:02:50.324Z,15.45
2019-03-21T14:05:19.676Z,11.85
2019-03-21T14:07:48.889Z,11.15
2019-03-21T14:10:18.118Z,12.63
2019-03-21T14:12:47.371Z,12.15
2019-03-21T14:15:17.483Z,9.93
2019-03-21T14:17:46.655Z,11.33
2019-03-21T14:20:16.054Z,10.03
2019-03-21T14:22:45.247Z,9.03
2019-03-21T14:25:14.489Z,10.32
2019-03-21T14:27:43.725Z,9.20
2019-03-21T14:30:17.897Z,10.15
2019-03-21T14:32:47.152Z,11.63
2019-03-21T14:35:17.089Z,10.10
2019-03-21T14:37:46.337Z,13.60
2019-03-21T14:40:16.424Z,9.63
2019-03-21T14:42:45.784Z,8.98
2019-03-21T14:45:16.343Z,11.57
2019-03-21T14:47:45.631Z,11.50
2019-03-21T14:50:16.117Z,10.53
2019-03-21T14:52:45.364Z,13.75
2019-03-21T14:55:15.120Z,10.75
2019-03-21T14:57:44.310Z,10.98
2019-03-21T15:00:16.052Z,12.10
2019-03-21T15:02:45.353Z,12.10
2019-03-21T15:05:14.591Z,14.25
2019-03-21T15:07:43.936Z,21.65
2019-03-21T15:10:17.967Z,13.05
2019-03-21T15:12:47.135Z,9.25
2019-03-21T15:15:16.498Z,10.88
2019-03-21T15:17:45.770Z,16.10
2019-03-21T15:20:17.021Z,14.05
2019-03-21T15:22:46.209Z,10.32
2019-03-21T15:25:15.445Z,11.35
2019-03-21T15:27:44.796Z,11.22
2019-03-21T15:30:20.491Z,12.47
2019-03-21T15:32:49.943Z,11.75
2019-03-21T15:35:19.419Z,12.70
2019-03-21T15:37:49.207Z,12.30
2019-03-21T15:40:18.511Z,11.85
2019-03-21T15:42:47.711Z,11.10
2019-03-21T15:45:22.707Z,12.37
2019-03-21T15:47:49.543Z,12.05
2019-03-21T15:50:37.637Z,15.68
2019-03-21T15:53:06.950Z,14.20
2019-03-21T15:55:36.272Z,13.05
2019-03-21T15:58:05.626Z,10.25
2019-03-21T16:00:39.508Z,9.60
2019-03-21T16:03:09.680Z,13.80
2019-03-21T16:05:38.956Z,14.00
2019-03-21T16:08:09.149Z,10.38
2019-03-21T16:10:38.783Z,16.82
2019-03-21T16:13:08.031Z,12.53
2019-03-21T16:15:37.298Z,14.68
2019-03-21T16:18:06.631Z,14.90
2019-03-21T16:20:35.885Z,14.33
2019-03-21T16:23:05.135Z,15.03
2019-03-21T16:25:34.411Z,13.40
2019-03-21T16:28:03.656Z,19.48
2019-03-21T16:30:32.863Z,16.70
2019-03-21T16:33:02.116Z,22.07
2019-03-21T16:35:31.287Z,14.10
2019-03-21T16:38:00.469Z,17.00
2019-03-21T16:40:44.780Z,18.37
2019-03-21T16:43:13.956Z,18.07
2019-03-21T16:45:43.228Z,19.05
2019-03-21T16:48:12.401Z,18.17
2019-03-21T16:50:41.680Z,18.90
2019-03-21T16:53:10.956Z,29.48
2019-03-21T16:55:40.149Z,26.15
2019-03-21T16:58:09.458Z,25.17
2019-03-21T17:00:38.699Z,20.68
2019-03-21T17:03:07.942Z,23.27
2019-03-21T17:05:37.222Z,22.25
2019-03-21T17:08:11.412Z,23.20
2019-03-21T17:10:37.443Z,23.30
2019-03-21T17:13:07.448Z,21.62
2019-03-21T17:15:36.795Z,27.77
2019-03-21T17:18:06.052Z,32.23
2019-03-21T17:20:35.243Z,37.17
2019-03-21T17:23:04.971Z,27.20
2019-03-21T17:25:34.329Z,34.45
2019-03-21T17:28:03.512Z,36.20
2019-03-21T17:30:32.705Z,35.08
2019-03-21T17:33:01.945Z,30.75
2019-03-21T17:35:31.201Z,40.08
2019-03-21T17:38:00.450Z,39.78
2019-03-21T17:40:29.783Z,45.55
2019-03-21T17:42:58.963Z,45.25
2019-03-21T17:45:28.813Z,42.78
2019-03-21T17:47:58.186Z,43.87
2019-03-21T17:50:27.594Z,47.35
2019-03-21T17:52:56.863Z,35.30
2019-03-21T17:55:26.140Z,40.63
2019-03-21T17:57:55.391Z,29.48
2019-03-21T18:00:35.294Z,30.80
2019-03-21T18:03:04.614Z,31.20
2019-03-21T18:05:33.866Z,32.83
2019-03-21T18:08:03.074Z,30.15
2019-03-21T18:10:33.854Z,30.82
2019-03-21T18:13:03.405Z,27.32
2019-03-21T18:15:32.652Z,29.42
2019-03-21T18:18:01.965Z,32.08
2019-03-21T18:20:31.197Z,26.45
2019-03-21T18:23:00.519Z,24.60
2019-03-21T18:25:30.318Z,28.35
2019-03-21T18:27:59.589Z,32.80
2019-03-21T18:30:28.835Z,27.77
2019-03-21T18:32:58.088Z,30.10
2019-03-21T18:35:27.392Z,30.88
2019-03-21T18:37:56.642Z,37.10
2019-03-21T18:40:25.880Z,31.40
2019-03-21T18:42:55.116Z,36.68
2019-03-21T18:45:24.446Z,36.53
2019-03-21T18:47:53.764Z,40.23
2019-03-21T18:50:23.012Z,40.40
2019-03-21T18:52:52.186Z,40.48
2019-03-21T18:55:21.372Z,38.85
2019-03-21T18:57:50.605Z,39.88
2019-03-21T19:00:20.689Z,38.10
2019-03-21T19:02:49.870Z,39.45
2019-03-21T19:05:19.710Z,39.58
2019-03-21T19:07:48.950Z,39.08
2019-03-21T19:10:20.095Z,38.63
2019-03-21T19:12:49.329Z,46.30
2019-03-21T19:15:18.572Z,40.43
2019-03-21T19:17:47.839Z,36.73
2019-03-21T19:20:18.414Z,34.98
2019-03-21T19:22:48.077Z,37.75
2019-03-21T19:25:19.340Z,51.58
2019-03-21T19:27:48.874Z,38.60
2019-03-21T19:30:21.588Z,46.18
2019-03-21T19:32:50.841Z,36.13
2019-03-21T19:35:21.183Z,40.25
2019-03-21T19:37:50.441Z,41.83
2019-03-21T19:40:20.127Z,44.60
2019-03-21T19:42:50.398Z,51.15
2019-03-21T19:45:22.038Z,44.90
2019-03-21T19:47:51.825Z,41.80
2019-03-21T19:50:21.464Z,44.08
2019-03-21T19:52:50.700Z,48.42
2019-03-21T19:55:30.898Z,50.30
2019-03-21T19:57:53.675Z,46.28
2019-03-21T20:00:24.743Z,45.10
2019-03-21T20:02:53.929Z,48.17
2019-03-21T20:05:23.196Z,44.15
2019-03-21T20:07:52.405Z,46.18
2019-03-21T20:10:22.221Z,47.60
2019-03-21T20:12:51.508Z,46.83
2019-03-21T20:15:20.775Z,50.67
2019-03-21T20:17:50.020Z,46.95
2019-03-21T20:20:19.294Z,46.02
2019-03-21T20:22:48.551Z,53.85
2019-03-21T20:25:17.819Z,46.15
2019-03-21T20:27:47.113Z,51.83
2019-03-21T20:30:20.782Z,46.48
2019-03-21T20:32:50.016Z,47.15
2019-03-21T20:35:19.274Z,41.58
2019-03-21T20:37:48.527Z,45.95
2019-03-21T20:40:18.743Z,50.40
2019-03-21T20:42:47.926Z,48.05
2019-03-21T20:45:18.566Z,49.95
2019-03-21T20:47:47.818Z,48.50
2019-03-21T20:50:17.066Z,45.80
2019-03-21T20:52:46.343Z,46.37
2019-03-21T20:55:15.591Z,41.18
2019-03-21T20:57:44.867Z,46.88
2019-03-21T21:00:21.808Z,46.23
2019-03-21T21:02:52.188Z,45.75
2019-03-21T21:05:23.055Z,43.55
2019-03-21T21:07:52.352Z,45.20
2019-03-21T21:10:21.629Z,44.08
2019-03-21T21:12:50.911Z,47.67
2019-03-21T21:15:20.158Z,42.83
2019-03-21T21:17:49.333Z,44.00
2019-03-21T21:20:18.930Z,42.30
2019-03-21T21:22:48.233Z,46.25
2019-03-21T21:25:17.492Z,43.20
2019-03-21T21:27:49.645Z,45.92
2019-03-21T21:30:20.581Z,47.27
2019-03-21T21:32:50.199Z,48.83
2019-03-21T21:35:19.385Z,48.58
2019-03-21T21:37:49.112Z,45.08
2019-03-21T21:40:18.361Z,45.38
2019-03-21T21:42:47.616Z,47.80
2019-03-21T21:45:17.350Z,40.20
2019-03-21T21:47:46.527Z,43.90
2019-03-21T21:50:16.795Z,43.02
2019-03-21T21:52:45.962Z,41.60
2019-03-21T21:55:15.222Z,43.02
2019-03-21T21:57:44.439Z,45.10
2019-03-21T22:00:16.384Z,41.68
2019-03-21T22:02:45.635Z,40.45
2019-03-21T22:05:14.946Z,42.93
2019-03-21T22:07:44.135Z,43.23
2019-03-21T22:10:13.563Z,42.00
2019-03-21T22:12:42.770Z,42.95
2019-03-21T22:15:14.305Z,48.98
2019-03-21T22:17:43.474Z,41.73
2019-03-21T22:20:14.068Z,44.35
2019-03-21T22:22:43.607Z,44.85
2019-03-21T22:25:13.664Z,42.80
2019-03-21T22:27:42.957Z,43.85
2019-03-21T22:30:17.530Z,43.25
2019-03-21T22:32:46.780Z,46.08
2019-03-21T22:35:15.987Z,46.37
2019-03-21T22:37:45.240Z,47.93
2019-03-21T22:40:16.614Z,42.67
2019-03-21T22:42:45.929Z,47.43
2019-03-21T22:45:16.375Z,46.15
2019-03-21T22:47:45.566Z,48.55
2019-03-21T22:50:18.049Z,49.75
2019-03-21T22:52:47.372Z,46.85
2019-03-21T22:55:16.631Z,47.45
2019-03-21T22:57:45.973Z,42.88
2019-03-21T23:00:20.446Z,45.70
2019-03-21T23:02:49.699Z,44.60
2019-03-21T23:05:18.912Z,44.08
2019-03-21T23:07:48.160Z,42.65
2019-03-21T23:10:17.434Z,46.10
2019-03-21T23:12:46.671Z,44.75
2019-03-21T23:15:15.856Z,50.63
2019-03-21T23:17:45.066Z,44.95
2019-03-21T23:20:17.201Z,47.30
2019-03-21T23:22:46.408Z,43.23
2019-03-21T23:25:16.936Z,43.83
2019-03-21T23:27:46.273Z,40.52
2019-03-21T23:30:19.479Z,40.65
2019-03-21T23:32:49.071Z,45.10
2019-03-21T23:35:18.323Z,41.65
2019-03-21T23:37:47.588Z,41.13
2019-03-21T23:40:16.796Z,41.60
2019-03-21T23:42:46.165Z,39.85
2019-03-21T23:45:15.414Z,39.53
2019-03-21T23:47:44.781Z,39.85
2019-03-21T23:50:14.607Z,36.73
2019-03-21T23:52:43.807Z,37.75
2019-03-21T23:55:13.031Z,40.15
2019-03-21T23:57:42.207Z,38.58
